sensor_id;sensor_type;location;lat;lon;timestamp;temperature;humidity
53844;DHT22;39744;53.314;5.710;2023-01-15T00:01:26;6.80;99.90
53844;DHT22;39744;53.314;5.710;2023-01-15T00:03:54;6.80;99.90
53844;DHT22;39744;53.314;5.710;2023-01-15T00:06:21;6.80;99.90
53844;DHT22;39744;53.314;5.710;2023-01-15T00:08:47;6.80;99.90
53844;DHT22;39744;53.314;5.710;2023-01-15T00:11:13;6.80;99.90
53844;DHT22;39744;53.314;5.710;2023-01-15T00:13:39;6.80;99.90
53844;DHT22;39744;53.314;5.710;2023-01-15T00:16:11;6.80;99.90
53844;DHT22;39744;53.314;5.710;2023-01-15T00:18:38;6.80;99.90
53844;DHT22;39744;53.314;5.710;2023-01-15T00:21:10;6.80;99.90
53844;DHT22;39744;53.314;5.710;2023-01-15T00:23:36;6.80;99.90
53844;DHT22;39744;53.314;5.710;2023-01-15T00:26:21;6.80;99.90
53844;DHT22;39744;53.314;5.710;2023-01-15T00:29:06;6.80;99.90
53844;DHT22;39744;53.314;5.710;2023-01-15T00:31:33;6.80;99.90
53844;DHT22;39744;53.314;5.710;2023-01-15T00:33:59;6.70;99.90
53844;DHT22;39744;53.314;5.710;2023-01-15T00:36:25;6.70;99.90
53844;DHT22;39744;53.314;5.710;2023-01-15T00:38:51;6.70;99.90
53844;DHT22;39744;53.314;5.710;2023-01-15T00:41:17;6.70;99.90
53844;DHT22;39744;53.314;5.710;2023-01-15T00:43:42;6.70;99.90
53844;DHT22;39744;53.314;5.710;2023-01-15T00:46:08;6.70;99.90
53844;DHT22;39744;53.314;5.710;2023-01-15T00:48:34;6.70;99.90
53844;DHT22;39744;53.314;5.710;2023-01-15T00:51:01;6.70;99.90
53844;DHT22;39744;53.314;5.710;2023-01-15T00:53:26;6.60;99.90
53844;DHT22;39744;53.314;5.710;2023-01-15T00:55:52;6.60;99.90
53844;DHT22;39744;53.314;5.710;2023-01-15T00:58:17;6.60;99.90
53844;DHT22;39744;53.314;5.710;2023-01-15T01:00:43;6.60;99.90
53844;DHT22;39744;53.314;5.710;2023-01-15T01:03:09;6.50;99.90
53844;DHT22;39744;53.314;5.710;2023-01-15T01:05:34;6.50;99.90
53844;DHT22;39744;53.314;5.710;2023-01-15T01:08:00;6.50;99.90
53844;DHT22;39744;53.314;5.710;2023-01-15T01:10:26;6.50;99.90
53844;DHT22;39744;53.314;5.710;2023-01-15T01:12:52;6.50;99.90
53844;DHT22;39744;53.314;5.710;2023-01-15T01:15:21;6.50;99.90
53844;DHT22;39744;53.314;5.710;2023-01-15T01:17:47;6.50;99.90
53844;DHT22;39744;53.314;5.710;2023-01-15T01:20:15;6.50;99.90
53844;DHT22;39744;53.314;5.710;2023-01-15T01:22:41;6.40;99.90
53844;DHT22;39744;53.314;5.710;2023-01-15T01:25:07;6.40;99.90
53844;DHT22;39744;53.314;5.710;2023-01-15T01:27:34;6.40;99.90
53844;DHT22;39744;53.314;5.710;2023-01-15T01:29:59;6.40;99.90
53844;DHT22;39744;53.314;5.710;2023-01-15T01:32:25;6.40;99.90
53844;DHT22;39744;53.314;5.710;2023-01-15T01:34:50;6.40;99.90
53844;DHT22;39744;53.314;5.710;2023-01-15T01:37:16;6.40;99.90
53844;DHT22;39744;53.314;5.710;2023-01-15T01:39:42;6.40;99.90
53844;DHT22;39744;53.314;5.710;2023-01-15T01:42:16;6.40;99.90
53844;DHT22;39744;53.314;5.710;2023-01-15T01:47:11;6.40;99.90
53844;DHT22;39744;53.314;5.710;2023-01-15T01:49:39;6.40;99.90
53844;DHT22;39744;53.314;5.710;2023-01-15T01:52:18;6.50;99.90
53844;DHT22;39744;53.314;5.710;2023-01-15T01:54:46;6.40;99.90
53844;DHT22;39744;53.314;5.710;2023-01-15T01:57:15;6.50;99.90
53844;DHT22;39744;53.314;5.710;2023-01-15T01:59:41;6.50;99.90
53844;DHT22;39744;53.314;5.710;2023-01-15T02:02:07;6.50;99.90
53844;DHT22;39744;53.314;5.710;2023-01-15T02:04:33;6.50;99.90
53844;DHT22;39744;53.314;5.710;2023-01-15T02:07:00;6.50;99.90
53844;DHT22;39744;53.314;5.710;2023-01-15T02:09:26;6.50;99.90
53844;DHT22;39744;53.314;5.710;2023-01-15T02:11:52;6.50;99.90
53844;DHT22;39744;53.314;5.710;2023-01-15T02:14:40;6.50;99.90
53844;DHT22;39744;53.314;5.710;2023-01-15T02:17:19;6.50;99.90
53844;DHT22;39744;53.314;5.710;2023-01-15T02:28:09;6.40;99.90
53844;DHT22;39744;53.314;5.710;2023-01-15T02:30:42;6.40;99.90
53844;DHT22;39744;53.314;5.710;2023-01-15T02:33:13;6.40;99.90
53844;DHT22;39744;53.314;5.710;2023-01-15T02:35:44;6.40;99.90
53844;DHT22;39744;53.314;5.710;2023-01-15T02:38:17;6.40;99.90
53844;DHT22;39744;53.314;5.710;2023-01-15T02:40:46;6.40;99.90
53844;DHT22;39744;53.314;5.710;2023-01-15T02:43:13;6.40;99.90
53844;DHT22;39744;53.314;5.710;2023-01-15T02:45:43;6.40;99.90
53844;DHT22;39744;53.314;5.710;2023-01-15T02:48:15;6.30;99.90
53844;DHT22;39744;53.314;5.710;2023-01-15T02:50:47;6.30;99.90
53844;DHT22;39744;53.314;5.710;2023-01-15T02:53:20;6.30;99.90
53844;DHT22;39744;53.314;5.710;2023-01-15T02:55:50;6.30;99.90
53844;DHT22;39744;53.314;5.710;2023-01-15T02:58:21;6.30;99.90
53844;DHT22;39744;53.314;5.710;2023-01-15T03:00:49;6.30;99.90
53844;DHT22;39744;53.314;5.710;2023-01-15T03:06:10;6.30;99.90
53844;DHT22;39744;53.314;5.710;2023-01-15T03:08:37;6.20;99.90
53844;DHT22;39744;53.314;5.710;2023-01-15T03:11:12;6.30;99.90
53844;DHT22;39744;53.314;5.710;2023-01-15T03:19:26;6.30;99.90
53844;DHT22;39744;53.314;5.710;2023-01-15T03:24:31;6.30;99.90
53844;DHT22;39744;53.314;5.710;2023-01-15T03:26:57;6.30;99.90
53844;DHT22;39744;53.314;5.710;2023-01-15T03:29:26;6.20;99.90
53844;DHT22;39744;53.314;5.710;2023-01-15T03:31:53;6.20;99.90
53844;DHT22;39744;53.314;5.710;2023-01-15T03:34:19;6.20;99.90
53844;DHT22;39744;53.314;5.710;2023-01-15T03:36:44;6.10;99.90
53844;DHT22;39744;53.314;5.710;2023-01-15T03:39:10;6.10;99.90
53844;DHT22;39744;53.314;5.710;2023-01-15T03:47:50;6.00;99.90
53844;DHT22;39744;53.314;5.710;2023-01-15T03:50:42;6.00;99.90
53844;DHT22;39744;53.314;5.710;2023-01-15T03:53:19;6.00;99.90
53844;DHT22;39744;53.314;5.710;2023-01-15T03:55:52;5.90;99.90
53844;DHT22;39744;53.314;5.710;2023-01-15T03:58:25;5.90;99.90
53844;DHT22;39744;53.314;5.710;2023-01-15T04:00:53;5.90;99.90
53844;DHT22;39744;53.314;5.710;2023-01-15T04:03:22;5.90;99.90
53844;DHT22;39744;53.314;5.710;2023-01-15T04:05:50;5.80;99.90
53844;DHT22;39744;53.314;5.710;2023-01-15T04:08:17;5.80;99.90
53844;DHT22;39744;53.314;5.710;2023-01-15T04:10:57;5.80;99.90
53844;DHT22;39744;53.314;5.710;2023-01-15T04:13:23;5.80;99.90
53844;DHT22;39744;53.314;5.710;2023-01-15T04:15:50;5.70;99.90
53844;DHT22;39744;53.314;5.710;2023-01-15T04:18:16;5.80;99.90
53844;DHT22;39744;53.314;5.710;2023-01-15T04:20:42;5.70;99.90
53844;DHT22;39744;53.314;5.710;2023-01-15T04:23:08;5.70;99.90
53844;DHT22;39744;53.314;5.710;2023-01-15T04:25:33;5.70;99.90
53844;DHT22;39744;53.314;5.710;2023-01-15T04:27:59;5.70;99.90
53844;DHT22;39744;53.314;5.710;2023-01-15T04:30:25;5.70;99.90
53844;DHT22;39744;53.314;5.710;2023-01-15T04:32:51;5.70;99.90
53844;DHT22;39744;53.314;5.710;2023-01-15T04:35:17;5.70;99.90
53844;DHT22;39744;53.314;5.710;2023-01-15T04:37:43;5.70;99.90
53844;DHT22;39744;53.314;5.710;2023-01-15T04:40:09;5.70;99.90
53844;DHT22;39744;53.314;5.710;2023-01-15T04:42:55;5.70;99.90
53844;DHT22;39744;53.314;5.710;2023-01-15T04:45:41;5.70;99.90
53844;DHT22;39744;53.314;5.710;2023-01-15T04:48:07;5.70;99.90
53844;DHT22;39744;53.314;5.710;2023-01-15T04:50:33;5.70;99.90
53844;DHT22;39744;53.314;5.710;2023-01-15T04:52:59;5.60;99.90
53844;DHT22;39744;53.314;5.710;2023-01-15T04:55:24;5.60;99.90
53844;DHT22;39744;53.314;5.710;2023-01-15T04:57:50;5.60;99.90
53844;DHT22;39744;53.314;5.710;2023-01-15T05:00:16;5.60;99.90
53844;DHT22;39744;53.314;5.710;2023-01-15T05:02:41;5.60;99.90
53844;DHT22;39744;53.314;5.710;2023-01-15T05:05:07;5.60;99.90
53844;DHT22;39744;53.314;5.710;2023-01-15T05:07:33;5.60;99.90
53844;DHT22;39744;53.314;5.710;2023-01-15T05:09:58;5.60;99.90
53844;DHT22;39744;53.314;5.710;2023-01-15T05:12:24;5.50;99.90
53844;DHT22;39744;53.314;5.710;2023-01-15T05:14:50;5.50;99.90
53844;DHT22;39744;53.314;5.710;2023-01-15T05:17:16;5.40;99.90
53844;DHT22;39744;53.314;5.710;2023-01-15T05:19:42;5.40;99.90
53844;DHT22;39744;53.314;5.710;2023-01-15T05:22:07;5.40;99.90
53844;DHT22;39744;53.314;5.710;2023-01-15T05:24:34;5.40;99.90
53844;DHT22;39744;53.314;5.710;2023-01-15T05:26:59;5.40;99.90
53844;DHT22;39744;53.314;5.710;2023-01-15T05:29:25;5.40;99.90
53844;DHT22;39744;53.314;5.710;2023-01-15T05:31:51;5.40;99.90
53844;DHT22;39744;53.314;5.710;2023-01-15T05:34:16;5.40;99.90
53844;DHT22;39744;53.314;5.710;2023-01-15T05:36:42;5.40;99.90
53844;DHT22;39744;53.314;5.710;2023-01-15T05:39:08;5.30;99.90
53844;DHT22;39744;53.314;5.710;2023-01-15T05:41:34;5.40;99.90
53844;DHT22;39744;53.314;5.710;2023-01-15T05:44:23;5.40;99.90
53844;DHT22;39744;53.314;5.710;2023-01-15T05:46:51;5.40;99.90
53844;DHT22;39744;53.314;5.710;2023-01-15T05:49:20;5.40;99.90
53844;DHT22;39744;53.314;5.710;2023-01-15T05:51:47;5.40;99.90
53844;DHT22;39744;53.314;5.710;2023-01-15T05:54:21;5.40;99.90
53844;DHT22;39744;53.314;5.710;2023-01-15T05:56:47;5.40;99.90
53844;DHT22;39744;53.314;5.710;2023-01-15T05:59:15;5.40;99.90
53844;DHT22;39744;53.314;5.710;2023-01-15T06:01:41;5.50;99.90
53844;DHT22;39744;53.314;5.710;2023-01-15T06:04:07;5.50;99.90
53844;DHT22;39744;53.314;5.710;2023-01-15T06:06:33;5.50;99.90
53844;DHT22;39744;53.314;5.710;2023-01-15T06:08:59;5.50;99.90
53844;DHT22;39744;53.314;5.710;2023-01-15T06:11:25;5.40;99.90
53844;DHT22;39744;53.314;5.710;2023-01-15T06:13:51;5.40;99.90
53844;DHT22;39744;53.314;5.710;2023-01-15T06:16:17;5.40;99.90
53844;DHT22;39744;53.314;5.710;2023-01-15T06:18:43;5.40;99.90
53844;DHT22;39744;53.314;5.710;2023-01-15T06:21:10;5.30;99.90
53844;DHT22;39744;53.314;5.710;2023-01-15T06:23:37;5.40;99.90
53844;DHT22;39744;53.314;5.710;2023-01-15T06:26:05;5.40;99.90
53844;DHT22;39744;53.314;5.710;2023-01-15T06:28:32;5.40;99.90
53844;DHT22;39744;53.314;5.710;2023-01-15T06:30:58;5.40;99.90
53844;DHT22;39744;53.314;5.710;2023-01-15T06:33:23;5.40;99.90
53844;DHT22;39744;53.314;5.710;2023-01-15T06:35:49;5.30;99.90
53844;DHT22;39744;53.314;5.710;2023-01-15T06:38:15;5.30;99.90
53844;DHT22;39744;53.314;5.710;2023-01-15T06:40:41;5.40;99.90
53844;DHT22;39744;53.314;5.710;2023-01-15T06:43:10;5.30;99.90
53844;DHT22;39744;53.314;5.710;2023-01-15T06:45:55;5.30;99.90
53844;DHT22;39744;53.314;5.710;2023-01-15T06:48:40;5.30;99.90
53844;DHT22;39744;53.314;5.710;2023-01-15T06:51:05;5.30;99.90
53844;DHT22;39744;53.314;5.710;2023-01-15T06:53:31;5.30;99.90
53844;DHT22;39744;53.314;5.710;2023-01-15T06:55:56;5.40;99.90
53844;DHT22;39744;53.314;5.710;2023-01-15T06:58:22;5.50;99.90
53844;DHT22;39744;53.314;5.710;2023-01-15T07:00:48;5.50;99.90
53844;DHT22;39744;53.314;5.710;2023-01-15T07:03:21;5.60;99.90
53844;DHT22;39744;53.314;5.710;2023-01-15T07:05:47;5.50;99.90
53844;DHT22;39744;53.314;5.710;2023-01-15T07:08:13;5.60;99.90
53844;DHT22;39744;53.314;5.710;2023-01-15T07:10:39;5.60;99.90
53844;DHT22;39744;53.314;5.710;2023-01-15T07:13:05;5.60;99.90
53844;DHT22;39744;53.314;5.710;2023-01-15T07:15:31;5.60;99.90
53844;DHT22;39744;53.314;5.710;2023-01-15T07:17:59;5.70;99.90
53844;DHT22;39744;53.314;5.710;2023-01-15T07:20:24;5.50;99.90
53844;DHT22;39744;53.314;5.710;2023-01-15T07:22:51;5.40;99.90
53844;DHT22;39744;53.314;5.710;2023-01-15T07:25:17;5.40;99.90
53844;DHT22;39744;53.314;5.710;2023-01-15T07:27:44;5.40;99.90
53844;DHT22;39744;53.314;5.710;2023-01-15T07:30:10;5.40;99.90
53844;DHT22;39744;53.314;5.710;2023-01-15T07:32:36;5.40;99.90
53844;DHT22;39744;53.314;5.710;2023-01-15T07:35:02;5.40;99.90
53844;DHT22;39744;53.314;5.710;2023-01-15T07:37:28;5.40;99.90
53844;DHT22;39744;53.314;5.710;2023-01-15T07:39:53;5.40;99.90
53844;DHT22;39744;53.314;5.710;2023-01-15T07:42:19;5.50;99.90
53844;DHT22;39744;53.314;5.710;2023-01-15T07:45:03;5.50;99.90
53844;DHT22;39744;53.314;5.710;2023-01-15T07:47:47;5.50;99.90
53844;DHT22;39744;53.314;5.710;2023-01-15T07:50:31;5.50;99.90
53844;DHT22;39744;53.314;5.710;2023-01-15T07:52:57;5.40;99.90
53844;DHT22;39744;53.314;5.710;2023-01-15T07:55:22;5.50;99.90
53844;DHT22;39744;53.314;5.710;2023-01-15T07:57:48;5.50;99.90
53844;DHT22;39744;53.314;5.710;2023-01-15T08:00:19;5.50;99.90
53844;DHT22;39744;53.314;5.710;2023-01-15T08:02:45;5.50;99.90
53844;DHT22;39744;53.314;5.710;2023-01-15T08:05:14;5.60;99.90
53844;DHT22;39744;53.314;5.710;2023-01-15T08:07:40;5.60;99.90
53844;DHT22;39744;53.314;5.710;2023-01-15T08:10:08;5.60;99.90
53844;DHT22;39744;53.314;5.710;2023-01-15T08:12:33;5.60;99.90
53844;DHT22;39744;53.314;5.710;2023-01-15T08:15:18;5.50;99.90
53844;DHT22;39744;53.314;5.710;2023-01-15T08:17:45;5.50;99.90
53844;DHT22;39744;53.314;5.710;2023-01-15T08:20:16;5.50;99.90
53844;DHT22;39744;53.314;5.710;2023-01-15T08:22:43;5.40;99.90
53844;DHT22;39744;53.314;5.710;2023-01-15T08:25:11;5.40;99.90
53844;DHT22;39744;53.314;5.710;2023-01-15T08:27:37;5.50;99.90
53844;DHT22;39744;53.314;5.710;2023-01-15T08:30:19;5.60;99.90
53844;DHT22;39744;53.314;5.710;2023-01-15T08:32:45;5.60;99.90
53844;DHT22;39744;53.314;5.710;2023-01-15T08:35:11;5.60;99.90
53844;DHT22;39744;53.314;5.710;2023-01-15T08:37:38;5.60;99.90
53844;DHT22;39744;53.314;5.710;2023-01-15T08:40:04;5.60;99.90
53844;DHT22;39744;53.314;5.710;2023-01-15T08:42:29;5.50;99.90
53844;DHT22;39744;53.314;5.710;2023-01-15T08:44:55;5.50;99.90
53844;DHT22;39744;53.314;5.710;2023-01-15T08:47:21;5.50;99.90
53844;DHT22;39744;53.314;5.710;2023-01-15T08:49:47;5.60;99.90
53844;DHT22;39744;53.314;5.710;2023-01-15T08:52:13;5.60;99.90
53844;DHT22;39744;53.314;5.710;2023-01-15T08:54:39;5.70;99.90
53844;DHT22;39744;53.314;5.710;2023-01-15T08:57:05;5.80;99.90
53844;DHT22;39744;53.314;5.710;2023-01-15T08:59:30;5.90;99.90
53844;DHT22;39744;53.314;5.710;2023-01-15T09:01:56;5.90;99.90
53844;DHT22;39744;53.314;5.710;2023-01-15T09:04:22;5.90;99.90
53844;DHT22;39744;53.314;5.710;2023-01-15T09:06:48;5.90;99.90
53844;DHT22;39744;53.314;5.710;2023-01-15T09:09:14;5.90;99.90
53844;DHT22;39744;53.314;5.710;2023-01-15T09:11:40;5.90;99.90
53844;DHT22;39744;53.314;5.710;2023-01-15T09:14:07;5.80;99.90
53844;DHT22;39744;53.314;5.710;2023-01-15T09:16:34;5.80;99.90
53844;DHT22;39744;53.314;5.710;2023-01-15T09:19:00;5.90;99.90
53844;DHT22;39744;53.314;5.710;2023-01-15T09:21:25;6.00;99.90
53844;DHT22;39744;53.314;5.710;2023-01-15T09:23:51;6.00;99.90
53844;DHT22;39744;53.314;5.710;2023-01-15T09:26:37;6.10;99.90
53844;DHT22;39744;53.314;5.710;2023-01-15T09:29:04;6.10;99.90
53844;DHT22;39744;53.314;5.710;2023-01-15T09:31:30;5.90;99.90
53844;DHT22;39744;53.314;5.710;2023-01-15T09:33:56;5.80;99.90
53844;DHT22;39744;53.314;5.710;2023-01-15T09:36:25;5.80;99.90
53844;DHT22;39744;53.314;5.710;2023-01-15T09:38:52;5.90;99.90
53844;DHT22;39744;53.314;5.710;2023-01-15T09:41:18;5.80;99.90
53844;DHT22;39744;53.314;5.710;2023-01-15T09:47:15;5.70;99.90
53844;DHT22;39744;53.314;5.710;2023-01-15T09:50:13;5.70;99.90
53844;DHT22;39744;53.314;5.710;2023-01-15T09:53:16;5.80;99.90
53844;DHT22;39744;53.314;5.710;2023-01-15T09:55:48;6.00;99.90
53844;DHT22;39744;53.314;5.710;2023-01-15T09:58:19;6.00;99.90
53844;DHT22;39744;53.314;5.710;2023-01-15T10:00:48;6.10;99.90
53844;DHT22;39744;53.314;5.710;2023-01-15T10:05:47;6.00;99.90
53844;DHT22;39744;53.314;5.710;2023-01-15T10:08:23;6.10;99.90
53844;DHT22;39744;53.314;5.710;2023-01-15T10:10:59;6.00;99.90
53844;DHT22;39744;53.314;5.710;2023-01-15T10:13:46;6.30;99.90
53844;DHT22;39744;53.314;5.710;2023-01-15T10:16:19;6.40;99.90
53844;DHT22;39744;53.314;5.710;2023-01-15T10:18:46;6.50;99.90
53844;DHT22;39744;53.314;5.710;2023-01-15T10:24:01;6.60;99.90
53844;DHT22;39744;53.314;5.710;2023-01-15T10:26:37;6.50;99.90
53844;DHT22;39744;53.314;5.710;2023-01-15T10:29:08;6.50;99.90
53844;DHT22;39744;53.314;5.710;2023-01-15T10:36:57;6.50;99.90
53844;DHT22;39744;53.314;5.710;2023-01-15T10:39:29;6.50;99.90
53844;DHT22;39744;53.314;5.710;2023-01-15T10:42:22;6.60;99.90
53844;DHT22;39744;53.314;5.710;2023-01-15T10:44:58;6.60;99.90
53844;DHT22;39744;53.314;5.710;2023-01-15T10:47:33;6.60;99.90
53844;DHT22;39744;53.314;5.710;2023-01-15T10:50:00;6.70;99.90
53844;DHT22;39744;53.314;5.710;2023-01-15T10:52:32;6.60;99.90
53844;DHT22;39744;53.314;5.710;2023-01-15T10:55:26;6.40;99.90
53844;DHT22;39744;53.314;5.710;2023-01-15T10:58:05;6.40;99.90
53844;DHT22;39744;53.314;5.710;2023-01-15T11:00:33;6.50;99.90
53844;DHT22;39744;53.314;5.710;2023-01-15T11:03:10;6.50;99.90
53844;DHT22;39744;53.314;5.710;2023-01-15T11:05:39;6.50;99.90
53844;DHT22;39744;53.314;5.710;2023-01-15T11:08:09;6.30;99.90
53844;DHT22;39744;53.314;5.710;2023-01-15T11:10:38;6.20;99.90
53844;DHT22;39744;53.314;5.710;2023-01-15T11:15:58;6.20;99.90
53844;DHT22;39744;53.314;5.710;2023-01-15T11:18:43;6.10;99.90
53844;DHT22;39744;53.314;5.710;2023-01-15T11:21:29;6.20;99.90
53844;DHT22;39744;53.314;5.710;2023-01-15T11:23:56;6.20;99.90
53844;DHT22;39744;53.314;5.710;2023-01-15T11:26:28;6.20;99.90
53844;DHT22;39744;53.314;5.710;2023-01-15T11:28:56;6.10;99.90
53844;DHT22;39744;53.314;5.710;2023-01-15T11:31:33;5.80;99.90
53844;DHT22;39744;53.314;5.710;2023-01-15T11:34:04;5.80;99.90
53844;DHT22;39744;53.314;5.710;2023-01-15T11:36:31;5.70;99.90
53844;DHT22;39744;53.314;5.710;2023-01-15T11:38:57;5.70;99.90
53844;DHT22;39744;53.314;5.710;2023-01-15T11:41:30;5.70;99.90
53844;DHT22;39744;53.314;5.710;2023-01-15T11:44:17;5.80;99.90
53844;DHT22;39744;53.314;5.710;2023-01-15T11:47:02;5.80;99.90
53844;DHT22;39744;53.314;5.710;2023-01-15T11:49:53;5.80;99.90
53844;DHT22;39744;53.314;5.710;2023-01-15T11:52:53;5.80;99.90
53844;DHT22;39744;53.314;5.710;2023-01-15T11:55:24;5.80;99.90
53844;DHT22;39744;53.314;5.710;2023-01-15T11:57:51;5.80;99.90
53844;DHT22;39744;53.314;5.710;2023-01-15T12:02:47;5.80;99.90
53844;DHT22;39744;53.314;5.710;2023-01-15T12:05:26;5.80;99.90
53844;DHT22;39744;53.314;5.710;2023-01-15T12:07:56;5.70;99.90
53844;DHT22;39744;53.314;5.710;2023-01-15T12:11:38;5.70;99.90
53844;DHT22;39744;53.314;5.710;2023-01-15T12:16:15;5.70;99.90
53844;DHT22;39744;53.314;5.710;2023-01-15T12:18:55;5.80;99.90
53844;DHT22;39744;53.314;5.710;2023-01-15T12:29:45;5.90;99.90
53844;DHT22;39744;53.314;5.710;2023-01-15T12:32:19;5.90;99.90
53844;DHT22;39744;53.314;5.710;2023-01-15T12:35:26;5.80;99.90
53844;DHT22;39744;53.314;5.710;2023-01-15T12:38:12;5.90;99.90
53844;DHT22;39744;53.314;5.710;2023-01-15T12:43:15;5.90;99.90
53844;DHT22;39744;53.314;5.710;2023-01-15T12:46:04;5.90;99.90
53844;DHT22;39744;53.314;5.710;2023-01-15T12:48:38;6.00;99.90
53844;DHT22;39744;53.314;5.710;2023-01-15T12:51:12;6.00;99.90
53844;DHT22;39744;53.314;5.710;2023-01-15T12:53:48;6.00;99.90
53844;DHT22;39744;53.314;5.710;2023-01-15T12:56:35;6.10;99.90
53844;DHT22;39744;53.314;5.710;2023-01-15T12:59:36;6.10;99.90
53844;DHT22;39744;53.314;5.710;2023-01-15T13:02:20;6.10;99.90
53844;DHT22;39744;53.314;5.710;2023-01-15T13:05:02;6.10;99.90
53844;DHT22;39744;53.314;5.710;2023-01-15T13:07:44;6.10;99.90
53844;DHT22;39744;53.314;5.710;2023-01-15T13:10:25;6.00;99.90
53844;DHT22;39744;53.314;5.710;2023-01-15T13:13:01;6.00;99.90
53844;DHT22;39744;53.314;5.710;2023-01-15T13:15:37;6.00;99.90
53844;DHT22;39744;53.314;5.710;2023-01-15T13:18:29;5.80;99.90
53844;DHT22;39744;53.314;5.710;2023-01-15T13:20:57;5.80;99.90
53844;DHT22;39744;53.314;5.710;2023-01-15T13:26:45;6.00;99.90
53844;DHT22;39744;53.314;5.710;2023-01-15T13:29:18;6.10;99.90
53844;DHT22;39744;53.314;5.710;2023-01-15T13:32:17;6.10;99.90
53844;DHT22;39744;53.314;5.710;2023-01-15T13:35:19;6.10;99.90
53844;DHT22;39744;53.314;5.710;2023-01-15T13:37:41;6.20;99.90
53844;DHT22;39744;53.314;5.710;2023-01-15T13:40:29;6.20;99.90
53844;DHT22;39744;53.314;5.710;2023-01-15T13:42:57;6.20;99.90
53844;DHT22;39744;53.314;5.710;2023-01-15T13:45:41;6.30;99.90
53844;DHT22;39744;53.314;5.710;2023-01-15T13:48:29;6.30;99.90
53844;DHT22;39744;53.314;5.710;2023-01-15T13:50:58;6.40;99.90
53844;DHT22;39744;53.314;5.710;2023-01-15T13:56:07;6.30;99.90
53844;DHT22;39744;53.314;5.710;2023-01-15T13:58:38;6.30;99.90
53844;DHT22;39744;53.314;5.710;2023-01-15T14:01:05;6.40;99.90
53844;DHT22;39744;53.314;5.710;2023-01-15T14:03:33;6.40;99.90
53844;DHT22;39744;53.314;5.710;2023-01-15T14:06:03;6.40;99.90
53844;DHT22;39744;53.314;5.710;2023-01-15T14:08:41;6.30;99.90
53844;DHT22;39744;53.314;5.710;2023-01-15T14:11:28;6.30;99.90
53844;DHT22;39744;53.314;5.710;2023-01-15T14:14:12;6.20;99.90
53844;DHT22;39744;53.314;5.710;2023-01-15T14:20:14;6.20;99.90
53844;DHT22;39744;53.314;5.710;2023-01-15T14:26:01;6.20;99.90
53844;DHT22;39744;53.314;5.710;2023-01-15T14:29:00;6.20;99.90
53844;DHT22;39744;53.314;5.710;2023-01-15T14:34:24;6.30;99.90
53844;DHT22;39744;53.314;5.710;2023-01-15T14:39:38;6.40;99.90
53844;DHT22;39744;53.314;5.710;2023-01-15T14:42:24;6.30;99.90
53844;DHT22;39744;53.314;5.710;2023-01-15T14:47:56;6.30;99.90
53844;DHT22;39744;53.314;5.710;2023-01-15T14:50:42;6.10;99.90
53844;DHT22;39744;53.314;5.710;2023-01-15T15:01:49;6.30;99.90
53844;DHT22;39744;53.314;5.710;2023-01-15T15:04:31;6.30;99.90
53844;DHT22;39744;53.314;5.710;2023-01-15T15:07:19;6.30;99.90
53844;DHT22;39744;53.314;5.710;2023-01-15T15:26:04;6.20;99.90
53844;DHT22;39744;53.314;5.710;2023-01-15T15:28:30;6.20;99.90
53844;DHT22;39744;53.314;5.710;2023-01-15T15:30:57;6.20;99.90
53844;DHT22;39744;53.314;5.710;2023-01-15T15:33:35;6.20;99.90
53844;DHT22;39744;53.314;5.710;2023-01-15T15:36:02;6.10;99.90
53844;DHT22;39744;53.314;5.710;2023-01-15T15:38:27;6.00;99.90
53844;DHT22;39744;53.314;5.710;2023-01-15T15:41:03;5.90;99.90
53844;DHT22;39744;53.314;5.710;2023-01-15T15:43:47;5.80;99.90
53844;DHT22;39744;53.314;5.710;2023-01-15T15:46:32;5.90;99.90
53844;DHT22;39744;53.314;5.710;2023-01-15T15:49:17;6.00;99.90
53844;DHT22;39744;53.314;5.710;2023-01-15T15:51:45;6.00;99.90
53844;DHT22;39744;53.314;5.710;2023-01-15T15:54:24;6.00;99.90
53844;DHT22;39744;53.314;5.710;2023-01-15T15:57:07;6.00;99.90
53844;DHT22;39744;53.314;5.710;2023-01-15T15:59:56;5.90;99.90
53844;DHT22;39744;53.314;5.710;2023-01-15T16:02:26;5.90;99.90
53844;DHT22;39744;53.314;5.710;2023-01-15T16:04:58;5.90;99.90
53844;DHT22;39744;53.314;5.710;2023-01-15T16:07:32;5.90;99.90
53844;DHT22;39744;53.314;5.710;2023-01-15T16:10:11;5.80;99.90
53844;DHT22;39744;53.314;5.710;2023-01-15T16:12:45;5.90;99.90
53844;DHT22;39744;53.314;5.710;2023-01-15T16:15:17;6.00;99.90
53844;DHT22;39744;53.314;5.710;2023-01-15T16:17:44;5.90;99.90
53844;DHT22;39744;53.314;5.710;2023-01-15T16:20:15;5.90;99.90
53844;DHT22;39744;53.314;5.710;2023-01-15T16:22:46;5.90;99.90
53844;DHT22;39744;53.314;5.710;2023-01-15T16:25:25;6.00;99.90
53844;DHT22;39744;53.314;5.710;2023-01-15T16:27:52;5.90;99.90
53844;DHT22;39744;53.314;5.710;2023-01-15T16:30:18;5.90;99.90
53844;DHT22;39744;53.314;5.710;2023-01-15T16:32:44;5.90;99.90
53844;DHT22;39744;53.314;5.710;2023-01-15T16:35:19;5.90;99.90
53844;DHT22;39744;53.314;5.710;2023-01-15T16:37:53;6.00;99.90
53844;DHT22;39744;53.314;5.710;2023-01-15T16:40:31;6.10;99.90
53844;DHT22;39744;53.314;5.710;2023-01-15T16:50:48;6.00;99.90
53844;DHT22;39744;53.314;5.710;2023-01-15T16:53:43;6.00;99.90
53844;DHT22;39744;53.314;5.710;2023-01-15T16:59:57;5.80;99.90
53844;DHT22;39744;53.314;5.710;2023-01-15T17:02:13;5.90;99.90
53844;DHT22;39744;53.314;5.710;2023-01-15T17:04:41;5.90;99.90
53844;DHT22;39744;53.314;5.710;2023-01-15T17:07:17;6.00;99.90
53844;DHT22;39744;53.314;5.710;2023-01-15T17:09:55;6.10;99.90
53844;DHT22;39744;53.314;5.710;2023-01-15T17:12:38;6.10;99.90
53844;DHT22;39744;53.314;5.710;2023-01-15T17:17:45;6.00;99.90
53844;DHT22;39744;53.314;5.710;2023-01-15T17:20:12;5.90;99.90
53844;DHT22;39744;53.314;5.710;2023-01-15T17:22:41;5.70;99.90
53844;DHT22;39744;53.314;5.710;2023-01-15T17:25:32;6.00;99.90
53844;DHT22;39744;53.314;5.710;2023-01-15T17:28:00;5.90;99.90
53844;DHT22;39744;53.314;5.710;2023-01-15T17:30:27;5.90;99.90
53844;DHT22;39744;53.314;5.710;2023-01-15T17:33:01;5.80;99.90
53844;DHT22;39744;53.314;5.710;2023-01-15T17:35:33;5.80;99.90
53844;DHT22;39744;53.314;5.710;2023-01-15T17:37:58;5.70;99.90
53844;DHT22;39744;53.314;5.710;2023-01-15T17:40:24;5.70;99.90
53844;DHT22;39744;53.314;5.710;2023-01-15T17:42:50;5.70;99.90
53844;DHT22;39744;53.314;5.710;2023-01-15T17:45:27;5.70;99.90
53844;DHT22;39744;53.314;5.710;2023-01-15T17:47:54;5.70;99.90
53844;DHT22;39744;53.314;5.710;2023-01-15T19:57:32;4.90;99.90
53844;DHT22;39744;53.314;5.710;2023-01-15T19:59:58;4.60;99.90
53844;DHT22;39744;53.314;5.710;2023-01-15T20:02:24;4.60;99.90
53844;DHT22;39744;53.314;5.710;2023-01-15T20:04:50;3.50;99.90
53844;DHT22;39744;53.314;5.710;2023-01-15T20:07:16;4.50;99.90
53844;DHT22;39744;53.314;5.710;2023-01-15T20:09:42;4.40;99.90
53844;DHT22;39744;53.314;5.710;2023-01-15T20:12:09;4.30;99.90
53844;DHT22;39744;53.314;5.710;2023-01-15T20:14:56;4.40;99.90
53844;DHT22;39744;53.314;5.710;2023-01-15T20:17:22;4.30;99.90
53844;DHT22;39744;53.314;5.710;2023-01-15T20:19:48;4.40;99.90